createdAt,value
2023-04-30T00:01:07.474Z,93.70
2023-04-30T00:03:35.612Z,95.00
2023-04-30T00:06:03.816Z,94.50
2023-04-30T00:08:31.926Z,94.07
2023-04-30T00:11:01.397Z,93.60
2023-04-30T00:13:29.425Z,94.47
2023-04-30T00:15:57.389Z,96.00
2023-04-30T00:18:25.569Z,94.33
2023-04-30T00:20:53.696Z,93.03
2023-04-30T00:23:21.862Z,95.67
2023-04-30T00:25:49.957Z,96.80
2023-04-30T00:28:19.436Z,96.97
2023-04-30T00:30:47.770Z,97.67
2023-04-30T00:33:15.869Z,97.90
2023-04-30T00:35:43.950Z,100.60
2023-04-30T00:38:12.063Z,100.30
2023-04-30T00:40:42.577Z,102.23
2023-04-30T00:43:10.693Z,102.50
2023-04-30T00:45:40.139Z,103.07
2023-04-30T00:48:08.675Z,99.47
2023-04-30T00:50:37.656Z,101.67
2023-04-30T00:53:06.138Z,101.70
2023-04-30T00:55:34.439Z,100.90
2023-04-30T00:58:02.672Z,100.07
2023-04-30T01:00:31.515Z,100.50
2023-04-30T01:03:01.500Z,98.43
2023-04-30T01:05:29.665Z,98.60
2023-04-30T01:07:58.167Z,98.90
2023-04-30T01:10:33.475Z,101.73
2023-04-30T01:13:08.379Z,102.40
2023-04-30T01:15:43.924Z,101.63
2023-04-30T01:18:19.219Z,103.90
2023-04-30T01:20:51.610Z,101.17
2023-04-30T01:23:35.082Z,103.83
2023-04-30T01:26:13.831Z,104.37
2023-04-30T01:28:45.615Z,102.50
2023-04-30T01:31:15.066Z,102.23
2023-04-30T01:33:43.192Z,102.93
2023-04-30T01:36:38.910Z,105.47
2023-04-30T01:39:37.028Z,105.70
2023-04-30T01:42:13.828Z,104.70
2023-04-30T01:44:55.777Z,106.07
2023-04-30T01:47:33.326Z,106.33
2023-04-30T01:50:15.381Z,103.30
2023-04-30T01:52:48.331Z,107.00
2023-04-30T01:55:21.465Z,107.23
2023-04-30T01:57:58.029Z,106.20
2023-04-30T02:00:28.100Z,105.00
2023-04-30T02:02:56.266Z,106.20
2023-04-30T02:05:25.079Z,109.50
2023-04-30T02:07:54.008Z,108.80
2023-04-30T02:10:24.083Z,107.03
2023-04-30T02:12:52.367Z,106.27
2023-04-30T02:15:20.352Z,107.87
2023-04-30T02:17:49.926Z,105.20
2023-04-30T02:20:18.527Z,105.63
2023-04-30T02:22:46.605Z,107.23
2023-04-30T02:25:14.767Z,110.20
2023-04-30T02:27:42.865Z,108.70
2023-04-30T02:30:11.095Z,107.37
2023-04-30T02:32:39.314Z,106.53
2023-04-30T02:35:09.637Z,106.77
2023-04-30T02:37:37.685Z,108.70
2023-04-30T02:40:07.100Z,107.33
2023-04-30T02:42:35.201Z,104.77
2023-04-30T02:45:03.345Z,103.80
2023-04-30T02:47:31.517Z,104.63
2023-04-30T02:49:59.581Z,103.63
2023-04-30T02:52:29.176Z,103.93
2023-04-30T02:54:57.266Z,105.60
2023-04-30T02:57:26.437Z,102.90
2023-04-30T02:59:54.823Z,104.93
2023-04-30T03:02:23.710Z,98.47
2023-04-30T03:04:52.011Z,99.37
2023-04-30T03:07:20.100Z,101.23
2023-04-30T03:09:49.549Z,100.37
2023-04-30T03:12:17.684Z,99.63
2023-04-30T03:14:45.723Z,100.30
2023-04-30T03:17:13.827Z,97.50
2023-04-30T03:19:41.972Z,102.00
2023-04-30T03:22:10.168Z,103.77
2023-04-30T03:24:38.332Z,103.73
2023-04-30T03:27:07.791Z,105.87
2023-04-30T03:29:38.043Z,104.07
2023-04-30T03:32:06.493Z,104.43
2023-04-30T03:34:34.654Z,105.60
2023-04-30T03:37:03.896Z,104.13
2023-04-30T03:39:32.013Z,106.87
2023-04-30T03:42:00.404Z,106.20
2023-04-30T03:44:29.864Z,105.33
2023-04-30T03:46:57.979Z,107.07
2023-04-30T03:49:26.012Z,107.73
2023-04-30T03:51:54.110Z,104.93
2023-04-30T03:54:22.286Z,108.13
2023-04-30T03:56:50.444Z,107.37
2023-04-30T03:59:18.864Z,112.17
2023-04-30T04:01:48.396Z,110.40
2023-04-30T04:04:16.717Z,111.57
2023-04-30T04:06:44.831Z,110.23
2023-04-30T04:09:13.288Z,111.73
2023-04-30T04:11:41.350Z,111.73
2023-04-30T04:14:09.506Z,112.73
2023-04-30T04:16:38.433Z,113.90
2023-04-30T04:19:07.972Z,118.90
2023-04-30T04:21:36.074Z,120.10
2023-04-30T04:24:08.508Z,119.43
2023-04-30T04:26:36.643Z,118.43
2023-04-30T04:29:05.009Z,117.57
2023-04-30T04:31:33.495Z,116.30
2023-04-30T04:34:04.536Z,114.93
2023-04-30T04:36:34.485Z,118.27
2023-04-30T04:39:03.015Z,116.50
2023-04-30T04:41:32.637Z,114.70
2023-04-30T04:44:01.812Z,116.20
2023-04-30T04:46:30.187Z,118.50
2023-04-30T04:48:58.629Z,115.70
2023-04-30T04:51:26.909Z,118.03
2023-04-30T04:53:56.315Z,119.87
2023-04-30T04:56:24.382Z,122.23
2023-04-30T04:58:52.943Z,122.03
2023-04-30T05:01:21.316Z,123.20
2023-04-30T05:03:49.943Z,117.97
2023-04-30T05:06:18.205Z,120.23
2023-04-30T05:08:46.329Z,122.07
2023-04-30T05:11:16.066Z,119.97
2023-04-30T05:13:44.159Z,121.93
2023-04-30T05:16:12.302Z,120.37
2023-04-30T05:18:40.395Z,126.37
2023-04-30T05:21:09.190Z,125.70
2023-04-30T05:23:37.281Z,126.07
2023-04-30T05:26:06.082Z,132.00
2023-04-30T05:28:35.609Z,133.00
2023-04-30T05:31:03.691Z,134.83
2023-04-30T05:33:31.825Z,135.27
2023-04-30T05:35:59.954Z,135.90
2023-04-30T05:38:28.048Z,133.63
2023-04-30T05:40:56.079Z,136.77
2023-04-30T05:43:24.449Z,139.57
2023-04-30T05:45:54.035Z,132.10
2023-04-30T05:48:22.359Z,131.30
2023-04-30T05:50:50.444Z,129.20
2023-04-30T05:53:18.484Z,127.20
2023-04-30T05:55:46.608Z,121.87
2023-04-30T05:58:15.108Z,114.40
2023-04-30T06:00:43.140Z,115.80
2023-04-30T06:03:12.612Z,113.63
2023-04-30T06:05:41.748Z,112.40
2023-04-30T06:08:10.057Z,105.53
2023-04-30T06:10:39.261Z,101.03
2023-04-30T06:13:07.988Z,81.63
2023-04-30T06:15:36.085Z,63.13
2023-04-30T06:18:04.286Z,56.73
2023-04-30T06:20:34.040Z,53.10
2023-04-30T06:23:03.982Z,49.50
2023-04-30T06:25:32.377Z,42.30
2023-04-30T06:28:01.528Z,38.80
2023-04-30T06:30:31.511Z,35.40
2023-04-30T06:32:59.694Z,29.40
2023-04-30T06:35:27.909Z,27.87
2023-04-30T06:37:57.340Z,27.20
2023-04-30T06:40:25.551Z,25.90
2023-04-30T06:42:54.740Z,24.83
2023-04-30T06:45:23.244Z,24.20
2023-04-30T06:47:53.085Z,23.13
2023-04-30T06:50:21.888Z,24.50
2023-04-30T06:52:50.080Z,22.50
2023-04-30T06:55:19.784Z,23.40
2023-04-30T06:57:48.200Z,23.30
2023-04-30T07:00:16.752Z,22.20
2023-04-30T07:02:47.953Z,22.57
2023-04-30T07:05:16.696Z,23.07
2023-04-30T07:07:44.845Z,22.17
2023-04-30T07:10:13.522Z,22.10
2023-04-30T07:12:43.094Z,22.17
2023-04-30T07:15:11.570Z,21.70
2023-04-30T07:17:41.723Z,20.70
2023-04-30T07:20:10.919Z,21.20
2023-04-30T07:22:39.147Z,21.20
2023-04-30T07:25:08.287Z,21.90
2023-04-30T07:27:36.529Z,21.03
2023-04-30T07:30:07.462Z,21.70
2023-04-30T07:32:36.188Z,20.70
2023-04-30T07:35:04.628Z,18.73
2023-04-30T07:37:35.306Z,20.15
2023-04-30T07:40:04.639Z,18.70
2023-04-30T07:42:32.832Z,19.00
2023-04-30T07:45:03.904Z,18.90
2023-04-30T07:47:33.610Z,17.77
2023-04-30T07:50:01.871Z,17.97
2023-04-30T07:52:30.153Z,18.50
2023-04-30T07:54:58.198Z,18.20
2023-04-30T07:57:27.642Z,18.13
2023-04-30T07:59:56.215Z,18.37
2023-04-30T08:02:24.606Z,18.57
2023-04-30T08:04:54.210Z,18.20
2023-04-30T08:07:22.520Z,18.37
2023-04-30T08:09:50.691Z,19.20
2023-04-30T08:12:19.183Z,17.63
2023-04-30T08:14:47.651Z,17.70
2023-04-30T08:17:16.093Z,17.60
2023-04-30T08:19:44.542Z,17.90
2023-04-30T08:22:14.513Z,17.60
2023-04-30T08:24:43.090Z,17.53
2023-04-30T08:27:11.666Z,17.90
2023-04-30T08:29:40.163Z,17.23
2023-04-30T08:32:09.318Z,17.40
2023-04-30T08:34:38.082Z,17.70
2023-04-30T08:37:06.799Z,17.40
2023-04-30T08:39:36.806Z,17.30
2023-04-30T08:42:10.830Z,17.53
2023-04-30T08:44:44.020Z,17.63
2023-04-30T08:47:14.503Z,17.67
2023-04-30T08:49:43.218Z,17.73
2023-04-30T08:52:12.118Z,17.60
2023-04-30T08:54:42.228Z,17.37
2023-04-30T08:57:11.326Z,17.57
2023-04-30T08:59:40.015Z,17.87
2023-04-30T09:02:10.576Z,17.57
2023-04-30T09:04:39.217Z,17.53
2023-04-30T09:07:09.635Z,17.13
2023-04-30T09:09:41.937Z,17.60
2023-04-30T09:12:18.491Z,17.03
2023-04-30T09:15:00.685Z,17.90
2023-04-30T09:17:29.977Z,17.20
2023-04-30T09:20:09.183Z,17.37
2023-04-30T09:22:38.658Z,17.33
2023-04-30T09:25:10.194Z,18.40
2023-04-30T09:27:38.865Z,18.07
2023-04-30T09:30:08.809Z,18.43
2023-04-30T09:32:37.379Z,18.03
2023-04-30T09:35:06.378Z,17.90
2023-04-30T09:37:39.077Z,17.60
2023-04-30T09:40:10.660Z,17.77
2023-04-30T09:42:39.890Z,18.13
2023-04-30T09:45:12.096Z,18.00
2023-04-30T09:47:41.362Z,17.80
2023-04-30T09:50:14.816Z,18.30
2023-04-30T09:52:49.241Z,17.73
2023-04-30T09:55:19.791Z,17.80
2023-04-30T09:57:49.293Z,17.67
2023-04-30T10:00:19.346Z,17.80
2023-04-30T10:02:47.884Z,18.27
2023-04-30T10:05:16.786Z,18.40
2023-04-30T10:07:45.676Z,17.67
2023-04-30T10:10:14.996Z,18.00
2023-04-30T10:12:51.363Z,17.57
2023-04-30T10:15:26.554Z,17.80
2023-04-30T10:17:58.936Z,17.67
2023-04-30T10:20:28.333Z,17.90
2023-04-30T10:22:56.928Z,19.00
2023-04-30T10:25:26.117Z,18.07
2023-04-30T10:27:55.852Z,17.77
2023-04-30T10:30:24.633Z,18.40
2023-04-30T10:32:59.930Z,17.73
2023-04-30T10:35:31.560Z,17.10
2023-04-30T10:38:12.214Z,18.10
2023-04-30T10:40:40.588Z,18.30
2023-04-30T10:43:13.428Z,17.97
2023-04-30T10:45:44.747Z,17.30
2023-04-30T10:48:16.031Z,18.47
2023-04-30T10:50:46.632Z,17.80
2023-04-30T10:53:16.944Z,17.13
2023-04-30T10:55:50.090Z,17.10
2023-04-30T10:58:31.774Z,16.90
2023-04-30T11:01:05.290Z,16.80
2023-04-30T11:03:35.386Z,17.10
2023-04-30T11:06:09.794Z,17.00
2023-04-30T11:08:39.454Z,16.87
2023-04-30T11:11:10.574Z,17.13
2023-04-30T11:13:45.698Z,17.47
2023-04-30T11:16:14.046Z,17.40
2023-04-30T11:18:46.118Z,17.27
2023-04-30T11:21:15.068Z,17.10
2023-04-30T11:23:45.290Z,17.00
2023-04-30T11:26:13.485Z,16.27
2023-04-30T11:28:52.537Z,16.80
2023-04-30T11:31:21.022Z,16.30
2023-04-30T11:33:50.126Z,16.33
2023-04-30T11:36:20.721Z,17.20
2023-04-30T11:38:49.249Z,17.20
2023-04-30T11:41:17.327Z,17.20
2023-04-30T11:43:46.784Z,16.83
2023-04-30T11:46:18.472Z,16.93
2023-04-30T11:48:47.638Z,16.93
2023-04-30T11:51:17.721Z,17.20
2023-04-30T11:53:47.873Z,16.27
2023-04-30T11:56:19.078Z,16.60
2023-04-30T11:58:50.358Z,16.80
2023-04-30T12:01:20.248Z,16.40
2023-04-30T12:03:50.596Z,17.20
2023-04-30T12:06:24.115Z,16.97
2023-04-30T12:08:55.107Z,16.47
2023-04-30T12:11:25.743Z,16.80
2023-04-30T12:13:57.408Z,17.03
2023-04-30T12:16:26.761Z,17.10
2023-04-30T12:18:56.005Z,32.43
2023-04-30T12:21:24.493Z,26.97
2023-04-30T12:23:53.530Z,34.10
2023-04-30T12:26:22.184Z,17.60
2023-04-30T12:28:51.096Z,17.40
2023-04-30T12:31:21.232Z,17.43
2023-04-30T12:33:56.556Z,18.20
2023-04-30T12:36:32.739Z,18.07
2023-04-30T12:39:08.396Z,18.30
2023-04-30T12:41:42.700Z,17.70
2023-04-30T12:44:18.613Z,17.70
2023-04-30T12:46:49.076Z,17.50
2023-04-30T12:49:27.603Z,17.70
2023-04-30T12:52:01.312Z,17.77
2023-04-30T12:54:30.683Z,17.70
2023-04-30T12:57:03.505Z,17.87
2023-04-30T12:59:32.934Z,17.67
2023-04-30T13:02:10.651Z,17.70
2023-04-30T13:04:39.542Z,18.05
2023-04-30T13:07:07.960Z,17.57
2023-04-30T13:09:37.830Z,17.90
2023-04-30T13:12:06.606Z,16.73
2023-04-30T13:14:35.570Z,17.03
2023-04-30T13:17:06.152Z,17.23
2023-04-30T13:19:35.947Z,16.97
2023-04-30T13:22:04.228Z,17.60
2023-04-30T13:24:32.785Z,17.07
2023-04-30T13:27:02.738Z,17.70
2023-04-30T13:29:31.915Z,17.50
2023-04-30T13:32:00.523Z,16.77
2023-04-30T13:34:28.859Z,16.60
2023-04-30T13:36:58.803Z,18.70
2023-04-30T13:39:27.530Z,18.03
2023-04-30T13:41:56.028Z,16.87
2023-04-30T13:44:24.394Z,16.97
2023-04-30T13:46:52.774Z,17.27
2023-04-30T13:49:21.462Z,21.40
2023-04-30T13:51:49.894Z,18.33
2023-04-30T13:54:19.779Z,20.00
2023-04-30T13:56:48.827Z,19.03
2023-04-30T13:59:17.199Z,18.07
2023-04-30T14:01:45.601Z,22.53
2023-04-30T14:04:14.128Z,20.77
2023-04-30T14:06:43.455Z,23.70
2023-04-30T14:09:12.089Z,17.90
2023-04-30T14:11:42.785Z,17.90
2023-04-30T14:14:11.171Z,17.50
2023-04-30T14:16:39.671Z,17.67
2023-04-30T14:19:08.114Z,17.20
2023-04-30T14:21:36.572Z,17.50
2023-04-30T14:24:05.323Z,17.07
2023-04-30T14:26:34.286Z,17.07
2023-04-30T14:29:04.130Z,16.80
2023-04-30T14:31:32.830Z,16.90
2023-04-30T14:34:02.401Z,16.80
2023-04-30T14:36:31.073Z,17.30
2023-04-30T14:38:59.499Z,16.57
2023-04-30T14:41:27.950Z,17.60
2023-04-30T14:43:56.308Z,17.80
2023-04-30T14:46:29.229Z,17.43
2023-04-30T14:48:57.751Z,18.10
2023-04-30T14:51:26.157Z,17.73
2023-04-30T14:53:54.809Z,17.23
2023-04-30T14:56:24.937Z,17.60
2023-04-30T14:58:53.633Z,17.00
2023-04-30T15:01:22.455Z,18.03
2023-04-30T15:03:53.297Z,17.50
2023-04-30T15:06:21.938Z,18.50
2023-04-30T15:08:50.618Z,17.73
2023-04-30T15:11:18.943Z,18.07
2023-04-30T15:13:48.488Z,17.90
2023-04-30T15:16:17.417Z,17.47
2023-04-30T15:18:46.110Z,17.60
2023-04-30T15:21:15.894Z,17.43
2023-04-30T15:23:44.271Z,17.77
2023-04-30T15:26:12.861Z,18.30
2023-04-30T15:28:41.328Z,17.57
2023-04-30T15:31:11.377Z,17.80
2023-04-30T15:33:42.204Z,17.77
2023-04-30T15:36:11.757Z,17.80
2023-04-30T15:38:41.382Z,18.17
2023-04-30T15:41:09.476Z,18.37
2023-04-30T15:43:37.531Z,17.90
2023-04-30T15:46:05.821Z,17.77
2023-04-30T15:48:34.101Z,18.43
2023-04-30T15:51:02.272Z,17.90
2023-04-30T15:53:30.417Z,17.63
2023-04-30T15:55:59.881Z,17.50
2023-04-30T15:58:27.892Z,18.00
2023-04-30T16:00:56.048Z,18.17
2023-04-30T16:03:24.486Z,18.20
2023-04-30T16:05:52.686Z,18.30
2023-04-30T16:08:20.816Z,18.33
2023-04-30T16:10:49.037Z,17.90
2023-04-30T16:13:18.446Z,18.03
2023-04-30T16:15:47.459Z,17.60
2023-04-30T16:18:15.609Z,18.30
2023-04-30T16:20:43.924Z,17.97
2023-04-30T16:23:12.029Z,18.40
2023-04-30T16:25:40.100Z,18.10
2023-04-30T16:28:08.128Z,17.50
2023-04-30T16:30:37.749Z,17.50
2023-04-30T16:33:07.030Z,17.63
2023-04-30T16:35:35.133Z,17.33
2023-04-30T16:38:03.864Z,17.40
2023-04-30T16:40:32.155Z,17.30
2023-04-30T16:43:00.701Z,17.50
2023-04-30T16:45:30.287Z,18.00
2023-04-30T16:47:59.897Z,17.57
2023-04-30T16:50:28.051Z,17.20
2023-04-30T16:52:56.333Z,17.10
2023-04-30T16:55:25.114Z,16.40
2023-04-30T16:57:53.883Z,17.10
2023-04-30T17:00:22.204Z,17.13
2023-04-30T17:02:52.826Z,17.30
2023-04-30T17:05:22.727Z,17.50
2023-04-30T17:07:51.050Z,17.27
2023-04-30T17:10:19.603Z,17.13
2023-04-30T17:12:47.698Z,17.33
2023-04-30T17:15:15.648Z,17.00
2023-04-30T17:17:43.821Z,17.13
2023-04-30T17:20:13.297Z,17.03
2023-04-30T17:22:42.764Z,16.83
2023-04-30T17:25:11.547Z,17.40
2023-04-30T17:27:39.634Z,17.00
2023-04-30T17:30:09.808Z,16.93
2023-04-30T17:32:38.377Z,17.10
2023-04-30T17:35:07.809Z,17.13
2023-04-30T17:37:36.732Z,17.80
2023-04-30T17:40:07.871Z,17.43
2023-04-30T17:42:36.376Z,17.27
2023-04-30T17:45:05.347Z,17.73
2023-04-30T17:47:33.870Z,17.90
2023-04-30T17:50:08.435Z,17.70
2023-04-30T17:52:38.762Z,17.60
2023-04-30T17:55:10.310Z,17.53
2023-04-30T17:57:39.067Z,17.67
2023-04-30T18:00:09.549Z,17.43
2023-04-30T18:02:38.446Z,17.50
2023-04-30T18:05:07.967Z,17.40
2023-04-30T18:07:36.897Z,17.50
2023-04-30T18:10:05.788Z,17.07
2023-04-30T18:12:36.822Z,17.20
2023-04-30T18:15:05.897Z,16.87
2023-04-30T18:17:36.909Z,17.40
2023-04-30T18:20:08.557Z,17.10
2023-04-30T18:22:43.275Z,16.60
2023-04-30T18:25:13.154Z,16.37
2023-04-30T18:27:42.898Z,17.40
2023-04-30T18:30:12.758Z,18.33
2023-04-30T18:32:41.949Z,17.60
2023-04-30T18:35:11.166Z,18.57
2023-04-30T18:37:39.655Z,16.70
2023-04-30T18:40:09.357Z,19.00
2023-04-30T18:42:38.696Z,18.00
2023-04-30T18:45:09.995Z,17.47
2023-04-30T18:47:38.497Z,15.73
2023-04-30T18:50:10.892Z,16.93
2023-04-30T18:52:39.334Z,16.40
2023-04-30T18:55:08.890Z,16.70
2023-04-30T18:57:39.208Z,17.40
2023-04-30T19:00:14.208Z,17.30
2023-04-30T19:02:43.100Z,16.47
2023-04-30T19:05:11.624Z,16.77
2023-04-30T19:07:39.889Z,16.87
2023-04-30T19:10:08.939Z,16.87
2023-04-30T19:12:37.505Z,16.83
2023-04-30T19:15:08.238Z,16.90
2023-04-30T19:17:38.508Z,16.70
2023-04-30T19:20:08.209Z,17.07
2023-04-30T19:22:37.396Z,17.33
2023-04-30T19:25:06.519Z,17.87
2023-04-30T19:27:35.124Z,17.43
2023-04-30T19:30:03.465Z,17.57
2023-04-30T19:32:31.500Z,17.70
2023-04-30T19:35:01.012Z,18.20
2023-04-30T19:37:29.064Z,18.30
2023-04-30T19:39:57.378Z,18.35
2023-04-30T19:42:25.648Z,18.30
2023-04-30T19:44:54.246Z,17.87
2023-04-30T19:47:24.391Z,17.47
2023-04-30T19:49:53.431Z,17.37
2023-04-30T19:52:23.182Z,17.40
2023-04-30T19:54:51.330Z,17.40
2023-04-30T19:57:19.413Z,16.90
2023-04-30T19:59:47.506Z,17.20
2023-04-30T20:02:15.839Z,17.30
2023-04-30T20:04:44.008Z,17.40
2023-04-30T20:07:13.868Z,17.33
2023-04-30T20:09:43.343Z,17.53
2023-04-30T20:12:11.398Z,17.07
2023-04-30T20:14:39.460Z,17.13
2023-04-30T20:17:07.635Z,17.50
2023-04-30T20:19:35.717Z,17.50
2023-04-30T20:22:04.789Z,17.70
2023-04-30T20:24:33.485Z,16.97
2023-04-30T20:27:04.076Z,17.40
2023-04-30T20:29:32.212Z,17.27
2023-04-30T20:32:00.955Z,17.53
2023-04-30T20:34:29.752Z,17.70
2023-04-30T20:36:57.833Z,17.80
2023-04-30T20:39:26.730Z,17.97
2023-04-30T20:41:54.840Z,18.50
2023-04-30T20:44:26.175Z,18.20
2023-04-30T20:46:54.271Z,18.60
2023-04-30T20:49:22.428Z,19.23
2023-04-30T20:51:50.504Z,19.10
2023-04-30T20:54:18.543Z,19.00
2023-04-30T20:56:47.430Z,19.20
2023-04-30T20:59:15.885Z,19.00
2023-04-30T21:01:45.604Z,19.17
2023-04-30T21:04:13.819Z,18.97
2023-04-30T21:06:42.120Z,18.57
2023-04-30T21:09:10.697Z,18.47
2023-04-30T21:11:39.042Z,18.70
2023-04-30T21:14:07.213Z,18.87
2023-04-30T21:16:35.616Z,18.63
2023-04-30T21:19:05.092Z,18.63
2023-04-30T21:21:33.838Z,18.67
2023-04-30T21:24:02.269Z,18.60
2023-04-30T21:26:30.371Z,18.93
2023-04-30T21:28:58.421Z,18.60
2023-04-30T21:31:27.577Z,18.67
2023-04-30T21:33:55.988Z,19.30
2023-04-30T21:36:25.583Z,19.17
2023-04-30T21:38:53.709Z,18.83
2023-04-30T21:41:24.516Z,18.73
2023-04-30T21:43:52.639Z,18.23
2023-04-30T21:46:20.868Z,18.20
2023-04-30T21:48:49.035Z,18.50
2023-04-30T21:51:17.678Z,18.60
2023-04-30T21:53:47.317Z,18.27
2023-04-30T21:56:16.324Z,18.60
2023-04-30T21:58:44.449Z,18.20
2023-04-30T22:01:13.293Z,18.80
2023-04-30T22:03:43.165Z,18.40
2023-04-30T22:06:11.378Z,19.20
2023-04-30T22:08:39.444Z,18.60
2023-04-30T22:11:08.914Z,19.40
2023-04-30T22:13:37.106Z,18.87
2023-04-30T22:16:05.515Z,18.47
2023-04-30T22:18:34.096Z,18.70
2023-04-30T22:21:02.586Z,18.07
2023-04-30T22:23:30.805Z,18.20
2023-04-30T22:25:58.921Z,18.10
2023-04-30T22:28:28.408Z,18.17
2023-04-30T22:31:00.080Z,18.30
2023-04-30T22:33:28.390Z,19.07
2023-04-30T22:35:56.668Z,18.07
2023-04-30T22:38:24.696Z,18.03
2023-04-30T22:40:52.872Z,18.33
2023-04-30T22:43:21.602Z,18.20
2023-04-30T22:45:51.368Z,18.70
2023-04-30T22:48:19.696Z,18.40
2023-04-30T22:50:47.962Z,19.00
2023-04-30T22:53:16.079Z,18.30
2023-04-30T22:55:44.412Z,18.17
2023-04-30T22:58:12.944Z,17.70
2023-04-30T23:00:41.325Z,19.00
2023-04-30T23:03:11.422Z,18.70
2023-04-30T23:05:39.585Z,18.70
2023-04-30T23:08:07.765Z,18.87
2023-04-30T23:10:35.920Z,20.53
2023-04-30T23:13:03.989Z,19.10
2023-04-30T23:15:31.929Z,19.67
2023-04-30T23:18:00.325Z,19.83
2023-04-30T23:20:29.946Z,19.67
2023-04-30T23:22:58.033Z,20.33
2023-04-30T23:25:26.099Z,21.23
2023-04-30T23:27:54.649Z,19.77
2023-04-30T23:30:23.580Z,20.97
2023-04-30T23:32:51.747Z,20.60
2023-04-30T23:35:20.021Z,21.10
2023-04-30T23:37:49.439Z,19.90
2023-04-30T23:40:17.607Z,20.00
2023-04-30T23:42:45.638Z,20.17
2023-04-30T23:45:13.724Z,21.63
2023-04-30T23:47:41.939Z,21.13
2023-04-30T23:50:11.114Z,21.30
2023-04-30T23:52:39.166Z,20.90
2023-04-30T23:55:10.095Z,20.83
2023-04-30T23:57:38.226Z,22.43
